Time;durP1;ratioP1;P1;durP2;ratioP2;P2;SDS_P1;SDS_P2;PMS_P1;PMS_P2;Temp;Humidity;BMP_temperature;BMP_pressure;BME280_temperature;BME280_humidity;BME280_pressure;Samples;Min_cycle;Max_cycle;Signal;HPM_P1;HPM_P2
2022/11/29 00:00:17;;;;;;;;;;;;;;;-144.99;100.00;52605.03;5052625;28;19966;-74
2022/11/29 00:02:45;;;;;;;;;;;;;;;-144.99;100.00;52609.13;5062757;28;20306;-74
2022/11/29 00:05:12;;;;;;;;;;;;;;;-144.99;100.00;52627.47;5031421;28;19967;-74
2022/11/29 00:07:39;;;;;;;;;;;;;;;-144.99;100.00;52619.31;5031334;28;20028;-75
2022/11/29 00:10:07;;;;;;;;;;;;;;;-144.99;100.00;52635.63;5031533;28;20011;-74
2022/11/29 00:12:33;;;;;;;;;;;;;;;-144.99;100.00;52619.31;5057078;28;20017;-76
2022/11/29 00:14:59;;;;;;;;;;;;;;;-144.99;100.00;52615.25;5052421;28;20007;-72
2022/11/29 00:17:26;;;;;;;;;;;;;;;-144.99;100.00;52623.38;5054100;28;19970;-74
2022/11/29 00:19:52;;;;;;;;;;;;;;;-144.99;100.00;52658.03;5053878;28;20005;-75
2022/11/29 00:22:19;;;;;;;;;;;;;;;-144.99;100.00;52598.94;5048599;28;19993;-76
2022/11/29 00:24:47;;;;;;;;;;;;;;;-144.99;100.00;52615.25;5057510;28;19937;-74
2022/11/29 00:27:13;;;;;;;;;;;;;;;-144.99;100.00;52590.78;5049298;28;20337;-74
2022/11/29 00:29:40;;;;;;;;;;;;;;;-144.99;100.00;52641.72;5040353;28;19929;-76
2022/11/29 00:32:06;;;;;;;;;;;;;;;-144.99;100.00;52603.00;5049112;28;19967;-75
2022/11/29 00:34:36;;;;;;;;;;;;;;;-144.99;100.00;52607.09;5050079;28;19945;-75
2022/11/29 00:37:02;;;;;;;;;;;;;;;-144.99;100.00;52598.94;5042463;28;19981;-74
2022/11/29 00:39:29;;;;;;;;;;;;;;;-144.99;100.00;52586.69;5031664;28;19955;-75
2022/11/29 00:41:57;;;;;;;;;;;;;;;-144.99;100.00;52605.03;5046768;28;20037;-75
2022/11/29 00:44:23;;;;;;;;;;;;;;;-144.99;100.00;52631.53;5059507;28;19945;-74
2022/11/29 00:46:50;;;;;;;;;;;;;;;-144.99;100.00;52615.25;5045064;28;19939;-76
2022/11/29 00:49:16;;;;;;;;;;;;;;;-144.99;100.00;52611.16;5031637;28;20003;-76
2022/11/29 00:51:43;;;;;;;;;;;;;;;-144.99;100.00;52566.31;5042655;28;19960;-75
2022/11/29 00:54:09;;;;;;;;;;;;;;;-144.99;100.00;52635.63;5050906;28;20017;-75
2022/11/29 00:56:38;;;;;;;;;;;;;;;-144.99;100.00;52615.25;5046647;28;19943;-75
2022/11/29 00:59:06;;;;;;;;;;;;;;;-144.99;100.00;52627.47;5040546;28;19951;-76
2022/11/29 01:01:32;;;;;;;;;;;;;;;-144.99;100.00;52554.09;5046305;28;20391;-79
2022/11/29 01:04:00;;;;;;;;;;;;;;;-144.99;100.00;52639.69;5072626;28;19940;-76
2022/11/29 01:06:26;;;;;;;;;;;;;;;-144.99;100.00;52621.34;5048169;28;19963;-76
2022/11/29 01:08:53;;;;;;;;;;;;;;;-144.99;100.00;52613.19;5031185;28;20395;-77
2022/11/29 01:11:23;;;;;;;;;;;;;;;-144.99;100.00;52615.25;5034356;28;19965;-76
2022/11/29 01:13:50;;;;;;;;;;;;;;;-144.99;100.00;52590.78;5065513;28;19944;-75
2022/11/29 01:16:18;;;;;;;;;;;;;;;-144.99;100.00;52598.94;5051074;28;19978;-75
2022/11/29 01:18:44;;;;;;;;;;;;;;;-144.99;100.00;52633.59;5030392;28;19925;-76
2022/11/29 01:21:12;;;;;;;;;;;;;;;-144.99;100.00;52623.38;5032383;28;20021;-75
2022/11/29 01:23:38;;;;;;;;;;;;;;;-144.99;100.00;52578.53;5054710;28;19939;-75
2022/11/29 01:26:07;;;;;;;;;;;;;;;-144.99;100.00;52611.16;5062668;28;19979;-76
2022/11/29 01:28:34;;;;;;;;;;;;;;;-144.99;100.00;52623.38;5037998;28;19963;-75
2022/11/29 01:31:04;;;;;;;;;;;;;;;-144.99;100.00;52590.78;5048782;28;19975;-76
2022/11/29 01:33:32;;;;;;;;;;;;;;;-144.99;100.00;52582.63;5051730;28;19925;-78
2022/11/29 01:35:59;;;;;;;;;;;;;;;-144.99;100.00;52611.16;5029791;28;20291;-76
2022/11/29 01:38:25;;;;;;;;;;;;;;;-144.99;100.00;52629.50;5064721;28;19953;-81
2022/11/29 01:41:00;;;;;;;;;;;;;;;-144.99;100.00;52594.84;5047525;28;20298;-76
2022/11/29 01:43:27;;;;;;;;;;;;;;;-144.99;100.00;52633.59;5047847;28;19934;-76
2022/11/29 01:45:53;;;;;;;;;;;;;;;-144.99;100.00;52619.31;5049489;28;19953;-76
2022/11/29 01:48:22;;;;;;;;;;;;;;;-144.99;100.00;52623.38;5054009;28;19963;-75
2022/11/29 01:50:50;;;;;;;;;;;;;;;-144.99;100.00;52615.25;5051690;28;20005;-75
2022/11/29 01:53:17;;;;;;;;;;;;;;;-144.99;100.00;52611.16;5057937;28;20424;-75
2022/11/29 01:55:47;;;;;;;;;;;;;;;-144.99;100.00;52615.25;5050104;28;20402;-74
2022/11/29 01:58:14;;;;;;;;;;;;;;;-144.99;100.00;52643.78;5034920;28;19959;-74
2022/11/29 02:00:41;;;;;;;;;;;;;;;-144.99;100.00;52623.38;5033231;28;20000;-75
2022/11/29 02:03:09;;;;;;;;;;;;;;;-144.99;100.00;52664.16;5049981;28;20000;-76
2022/11/29 02:05:37;;;;;;;;;;;;;;;-144.99;100.00;52578.53;5056509;28;19948;-76
2022/11/29 02:08:06;;;;;;;;;;;;;;;-144.99;100.00;52619.31;5049220;28;20002;-74
2022/11/29 02:10:37;;;;;;;;;;;;;;;-144.99;100.00;52592.81;5057421;28;19978;-75
2022/11/29 02:13:11;;;;;;;;;;;;;;;-144.99;100.00;52619.31;5058171;28;19958;-74
2022/11/29 02:15:41;;;;;;;;;;;;;;;-144.99;100.00;52621.34;5057279;28;20063;-74
2022/11/29 02:18:10;;;;;;;;;;;;;;;-144.99;100.00;52598.94;5053218;28;19925;-73
2022/11/29 02:20:53;;;;;;;;;;;;;;;-144.99;100.00;52633.59;5057363;28;20050;-74
2022/11/29 02:23:40;;;;;;;;;;;;;;;-144.99;100.00;52621.34;5056422;28;20019;-75
2022/11/29 02:26:17;;;;;;;;;;;;;;;-144.99;100.00;52647.84;5043408;28;19987;-77
2022/11/29 02:29:07;;;;;;;;;;;;;;;-144.99;100.00;52625.44;5042798;28;19928;-74
2022/11/29 02:31:48;;;;;;;;;;;;;;;-144.99;100.00;52594.84;5048315;28;19936;-77
2022/11/29 02:34:25;;;;;;;;;;;;;;;-144.99;100.00;52623.38;5053186;28;19985;-77
2022/11/29 02:37:01;;;;;;;;;;;;;;;-144.99;100.00;52631.53;5043266;28;20384;-75
2022/11/29 02:39:42;;;;;;;;;;;;;;;-144.99;100.00;52611.16;5048967;28;20063;-74
2022/11/29 02:42:19;;;;;;;;;;;;;;;-144.99;100.00;52603.00;5044265;28;19983;-75
2022/11/29 02:45:04;;;;;;;;;;;;;;;-144.99;100.00;52635.63;5049854;28;19939;-77
2022/11/29 02:47:36;;;;;;;;;;;;;;;-144.99;100.00;52615.25;5047246;28;19960;-74
2022/11/29 02:50:15;;;;;;;;;;;;;;;-144.99;100.00;52635.63;5046932;28;19959;-75
2022/11/29 02:52:47;;;;;;;;;;;;;;;-144.99;100.00;52613.19;5052393;28;20471;-75
2022/11/29 02:55:16;;;;;;;;;;;;;;;-144.99;100.00;52596.88;5049034;28;19939;-74
2022/11/29 02:57:47;;;;;;;;;;;;;;;-144.99;100.00;52639.69;5062596;28;19941;-76
2022/11/29 03:00:15;;;;;;;;;;;;;;;-144.99;100.00;52647.84;5035794;28;19970;-73
2022/11/29 03:02:48;;;;;;;;;;;;;;;-144.99;100.00;52619.31;5048698;28;19982;-73
2022/11/29 03:05:19;;;;;;;;;;;;;;;-144.99;100.00;52623.38;5050641;28;19925;-74
2022/11/29 03:07:50;;;;;;;;;;;;;;;-144.99;100.00;52643.78;5035057;28;20032;-76
2022/11/29 03:10:22;;;;;;;;;;;;;;;-144.99;100.00;52607.09;5049177;28;19929;-75
2022/11/29 03:12:50;;;;;;;;;;;;;;;-144.99;100.00;52627.47;5055090;28;20231;-75
2022/11/29 03:15:26;;;;;;;;;;;;;;;-144.99;100.00;52647.84;5068268;28;19994;-75
2022/11/29 03:18:00;;;;;;;;;;;;;;;-144.99;100.00;52613.19;5032940;28;20015;-74
2022/11/29 03:20:35;;;;;;;;;;;;;;;-144.99;100.00;52627.47;5033296;28;19921;-75
2022/11/29 03:23:08;;;;;;;;;;;;;;;-144.99;100.00;52647.84;5060023;28;20245;-75
2022/11/29 03:25:37;;;;;;;;;;;;;;;-144.99;100.00;52611.16;5047479;28;19994;-75
2022/11/29 03:28:06;;;;;;;;;;;;;;;-144.99;100.00;52609.13;5040351;28;20066;-74
2022/11/29 03:30:34;;;;;;;;;;;;;;;-144.99;100.00;52664.16;5046092;28;19938;-73
2022/11/29 03:33:05;;;;;;;;;;;;;;;-144.99;100.00;52651.94;5049206;28;19946;-75
2022/11/29 03:35:37;;;;;;;;;;;;;;;-144.99;100.00;52639.69;5048677;28;20456;-75
2022/11/29 03:38:09;;;;;;;;;;;;;;;-144.99;100.00;52619.31;5039702;28;20393;-75
2022/11/29 03:40:40;;;;;;;;;;;;;;;-144.99;100.00;52617.28;5052905;28;19940;-74
2022/11/29 03:43:09;;;;;;;;;;;;;;;-144.99;100.00;52633.59;5041193;28;19997;-75
2022/11/29 03:45:38;;;;;;;;;;;;;;;-144.99;100.00;52609.13;5040927;28;19929;-75
2022/11/29 03:48:08;;;;;;;;;;;;;;;-144.99;100.00;52635.63;5049074;28;19996;-75
2022/11/29 03:50:38;;;;;;;;;;;;;;;-144.99;100.00;52639.69;5041545;28;20038;-75
2022/11/29 03:53:12;;;;;;;;;;;;;;;-144.99;100.00;52633.59;5060184;28;20297;-77
2022/11/29 03:55:50;;;;;;;;;;;;;;;-144.99;100.00;52590.78;5044579;28;20088;-76
2022/11/29 03:58:29;;;;;;;;;;;;;;;-144.99;100.00;52590.78;5035468;28;19973;-74
2022/11/29 04:01:14;;;;;;;;;;;;;;;-144.99;100.00;52603.00;5041081;28;19938;-74
2022/11/29 04:03:50;;;;;;;;;;;;;;;-144.99;100.00;52617.28;5053629;28;20075;-75
2022/11/29 04:06:26;;;;;;;;;;;;;;;-144.99;100.00;52631.53;5049714;28;20268;-75
2022/11/29 04:09:07;;;;;;;;;;;;;;;-144.99;100.00;52633.59;5032115;28;19963;-75
2022/11/29 04:11:55;;;;;;;;;;;;;;;-144.99;100.00;52635.63;5041546;28;19941;-77
2022/11/29 04:14:43;;;;;;;;;;;;;;;-144.99;100.00;52643.78;5035128;28;19932;-75
2022/11/29 04:17:40;;;;;;;;;;;;;;;-144.99;100.00;52619.31;5050526;28;19970;-75
2022/11/29 04:20:21;;;;;;;;;;;;;;;-144.99;100.00;52666.19;4985625;28;19999;-75
2022/11/29 04:23:10;;;;;;;;;;;;;;;-144.99;100.00;52615.25;5048317;28;19939;-75
2022/11/29 04:25:44;;;;;;;;;;;;;;;-144.99;100.00;52594.84;5031296;28;20006;-75
2022/11/29 04:28:32;;;;;;;;;;;;;;;-144.99;100.00;52627.47;5032930;28;19990;-74
2022/11/29 04:31:04;;;;;;;;;;;;;;;-144.99;100.00;52590.78;5079946;28;19925;-80
2022/11/29 04:33:42;;;;;;;;;;;;;;;-144.99;100.00;52590.78;5049716;28;20039;-77
2022/11/29 04:36:21;;;;;;;;;;;;;;;-144.99;100.00;52623.38;5046876;28;20363;-75
2022/11/29 04:39:07;;;;;;;;;;;;;;;-144.99;100.00;52617.28;5032123;28;20564;-76
2022/11/29 04:41:50;;;;;;;;;;;;;;;-144.99;100.00;52623.38;5044915;28;19935;-75
2022/11/29 04:44:23;;;;;;;;;;;;;;;-144.99;100.00;52619.31;5044234;28;19945;-76
2022/11/29 04:47:11;;;;;;;;;;;;;;;-144.99;100.00;52615.25;5052022;28;19962;-76
2022/11/29 04:49:53;;;;;;;;;;;;;;;-144.99;100.00;52619.31;5040481;28;19955;-75
2022/11/29 04:52:27;;;;;;;;;;;;;;;-144.99;100.00;52605.03;5036343;28;19963;-75
2022/11/29 04:54:59;;;;;;;;;;;;;;;-144.99;100.00;52668.22;5050973;28;19939;-75
2022/11/29 04:57:35;;;;;;;;;;;;;;;-144.99;100.00;52619.31;5036135;28;20050;-74
2022/11/29 05:00:06;;;;;;;;;;;;;;;-144.99;100.00;52617.28;5046308;28;19925;-74
2022/11/29 05:02:34;;;;;;;;;;;;;;;-144.99;100.00;52643.78;5055429;28;19935;-73
2022/11/29 05:05:07;;;;;;;;;;;;;;;-144.99;100.00;52623.38;5051136;28;19928;-74
2022/11/29 05:07:39;;;;;;;;;;;;;;;-144.99;100.00;52635.63;5037773;28;19943;-73
2022/11/29 05:10:17;;;;;;;;;;;;;;;-144.99;100.00;52627.47;5041763;28;19960;-71
2022/11/29 05:12:48;;;;;;;;;;;;;;;-144.99;100.00;52631.53;5061622;22;19933;-68
2022/11/29 05:15:25;;;;;;;;;;;;;;;-144.99;100.00;52651.94;5078290;28;19950;-68
2022/11/29 05:18:04;;;;;;;;;;;;;;;-144.99;100.00;52633.59;5087881;28;20061;-72
2022/11/29 05:20:35;;;;;;;;;;;;;;;-144.99;100.00;52660.09;5082880;28;20004;-70
2022/11/29 05:23:17;;;;;;;;;;;;;;;-144.99;100.00;52637.66;5062679;28;20405;-69
2022/11/29 05:25:45;;;;;;;;;;;;;;;-144.99;100.00;52641.72;5069036;28;19948;-70
2022/11/29 05:28:19;;;;;;;;;;;;;;;-144.99;100.00;52584.66;5058080;28;20572;-70
2022/11/29 05:31:04;;;;;;;;;;;;;;;-144.99;100.00;52643.78;5074070;28;19928;-68
2022/11/29 05:33:43;;;;;;;;;;;;;;;-144.99;100.00;52554.09;5056317;28;20270;-68
2022/11/29 05:36:14;;;;;;;;;;;;;;;-144.99;100.00;52615.25;5074522;28;19924;-69
2022/11/29 05:39:01;;;;;;;;;;;;;;;-144.99;100.00;52639.69;5072471;28;20393;-68
2022/11/29 05:41:43;;;;;;;;;;;;;;;-144.99;100.00;52615.25;5057602;28;20456;-70
2022/11/29 05:44:13;;;;;;;;;;;;;;;-144.99;100.00;52598.94;5055798;28;20546;-69
2022/11/29 05:46:45;;;;;;;;;;;;;;;-144.99;100.00;52643.78;5069430;28;20411;-69
2022/11/29 05:49:17;;;;;;;;;;;;;;;-144.99;100.00;52619.31;5072372;28;20428;-70
2022/11/29 05:51:50;;;;;;;;;;;;;;;-144.99;100.00;52627.47;5070839;28;20005;-70
2022/11/29 05:54:25;;;;;;;;;;;;;;;-144.99;100.00;52603.00;5073200;28;19947;-69
2022/11/29 05:56:55;;;;;;;;;;;;;;;-144.99;100.00;52625.44;5056492;28;20003;-67
2022/11/29 05:59:28;;;;;;;;;;;;;;;-144.99;100.00;52631.53;5072291;28;19980;-68
2022/11/29 06:02:00;;;;;;;;;;;;;;;-144.99;100.00;52594.84;5069095;28;19933;-71
2022/11/29 06:04:31;;;;;;;;;;;;;;;-144.99;100.00;52651.94;5073052;28;19982;-61
2022/11/29 06:07:03;;;;;;;;;;;;;;;-144.99;100.00;52578.53;5069107;28;19929;-73
2022/11/29 06:09:33;;;;;;;;;;;;;;;-144.99;100.00;52629.50;5078336;28;20482;-73
2022/11/29 06:12:04;;;;;;;;;;;;;;;-144.99;100.00;52607.09;5074182;28;19981;-72
2022/11/29 06:14:49;;;;;;;;;;;;;;;-144.99;100.00;52619.31;5072902;28;19963;-73
2022/11/29 06:17:24;;;;;;;;;;;;;;;-144.99;100.00;52609.13;5074527;28;19975;-76
2022/11/29 06:19:56;;;;;;;;;;;;;;;-144.99;100.00;52639.69;4728214;28;9999648;-78
2022/11/29 06:22:44;;;;;;;;;;;;;;;-144.99;100.00;52643.78;5068025;28;20397;-76
2022/11/29 06:25:19;;;;;;;;;;;;;;;-144.99;100.00;52621.34;5070456;28;19996;-78
2022/11/29 06:27:56;;;;;;;;;;;;;;;-144.99;100.00;52619.31;5069659;28;19949;-76
2022/11/29 06:30:27;;;;;;;;;;;;;;;-144.99;100.00;52619.31;5067638;28;19954;-75
2022/11/29 06:33:00;;;;;;;;;;;;;;;-144.99;100.00;52613.19;5069625;28;20500;-78
2022/11/29 06:35:36;;;;;;;;;;;;;;;-144.99;100.00;52596.88;5067876;28;20336;-76
2022/11/29 06:38:04;;;;;;;;;;;;;;;-144.99;100.00;52609.13;5056884;28;19942;-77
2022/11/29 06:40:31;;;;;;;;;;;;;;;-144.99;100.00;52603.00;5064433;28;19948;-75
2022/11/29 06:42:58;;;;;;;;;;;;;;;-144.99;100.00;52550.00;5062507;28;19939;-76
2022/11/29 06:45:27;;;;;;;;;;;;;;;-144.99;100.00;52635.63;5064168;28;20028;-74
2022/11/29 06:47:58;;;;;;;;;;;;;;;-144.99;100.00;52641.72;5065732;28;20307;-78
2022/11/29 06:50:31;;;;;;;;;;;;;;;-144.99;100.00;52635.63;5068858;28;19963;-75
2022/11/29 06:53:06;;;;;;;;;;;;;;;-144.99;100.00;52631.53;5066990;28;19939;-76
2022/11/29 06:55:39;;;;;;;;;;;;;;;-144.99;100.00;52603.00;5057466;28;19939;-74
2022/11/29 06:58:12;;;;;;;;;;;;;;;-144.99;100.00;52603.00;5069175;28;20278;-76
2022/11/29 07:00:43;;;;;;;;;;;;;;;-144.99;100.00;52623.38;5068680;28;19955;-76
2022/11/29 07:03:23;;;;;;;;;;;;;;;-144.99;100.00;52676.38;5059602;28;19929;-76
2022/11/29 07:05:50;;;;;;;;;;;;;;;-144.99;100.00;52596.88;5062268;28;19933;-76
2022/11/29 07:08:18;;;;;;;;;;;;;;;-144.99;100.00;52639.69;5074333;28;19958;-77
2022/11/29 07:10:48;;;;;;;;;;;;;;;-144.99;100.00;52631.53;5073772;28;19928;-76
2022/11/29 07:13:16;;;;;;;;;;;;;;;-144.99;100.00;52643.78;5072608;28;19993;-77
2022/11/29 07:15:49;;;;;;;;;;;;;;;-144.99;100.00;52582.63;5072950;28;19994;-77
2022/11/29 07:18:22;;;;;;;;;;;;;;;-144.99;100.00;52613.19;5060641;28;19932;-75
2022/11/29 07:20:54;;;;;;;;;;;;;;;-144.99;100.00;52649.88;5055170;28;20492;-76
2022/11/29 07:23:26;;;;;;;;;;;;;;;-144.99;100.00;52607.09;5068333;28;19935;-76
2022/11/29 07:25:57;;;;;;;;;;;;;;;-144.99;100.00;52664.16;5066410;28;20365;-75
2022/11/29 07:28:30;;;;;;;;;;;;;;;-144.99;100.00;52643.78;5064456;28;19966;-77
2022/11/29 07:31:03;;;;;;;;;;;;;;;-144.99;100.00;52639.69;5066690;28;20461;-75
2022/11/29 07:33:35;;;;;;;;;;;;;;;-144.99;100.00;52603.00;5052298;28;20014;-76
2022/11/29 07:36:09;;;;;;;;;;;;;;;-144.99;100.00;52635.63;5063467;28;19944;-75
2022/11/29 07:38:39;;;;;;;;;;;;;;;-144.99;100.00;52651.94;5066912;28;19968;-75
2022/11/29 07:41:10;;;;;;;;;;;;;;;-144.99;100.00;52637.66;5053196;28;20384;-77
2022/11/29 07:43:45;;;;;;;;;;;;;;;-144.99;100.00;52598.94;5057568;28;20449;-75
2022/11/29 07:46:13;;;;;;;;;;;;;;;-144.99;100.00;52594.84;5066424;28;19935;-75
2022/11/29 07:48:40;;;;;;;;;;;;;;;-144.99;100.00;52598.94;5069709;28;20425;-77
2022/11/29 07:51:06;;;;;;;;;;;;;;;-144.99;100.00;52621.34;5072250;28;20041;-75
2022/11/29 07:53:36;;;;;;;;;;;;;;;-144.99;100.00;52639.69;5068886;28;19945;-74
2022/11/29 07:56:03;;;;;;;;;;;;;;;-144.99;100.00;52627.47;5067094;28;19973;-74
2022/11/29 07:58:30;;;;;;;;;;;;;;;-144.99;100.00;52623.38;5086878;28;20601;-75
2022/11/29 08:00:56;;;;;;;;;;;;;;;-144.99;100.00;52598.94;5087812;28;20015;-75
2022/11/29 08:03:24;;;;;;;;;;;;;;;-144.99;100.00;52607.09;5072519;28;20405;-76
2022/11/29 08:05:51;;;;;;;;;;;;;;;-144.99;100.00;52619.31;5072560;28;19937;-76
2022/11/29 08:08:18;;;;;;;;;;;;;;;-144.99;100.00;52643.78;5068284;28;20365;-77
2022/11/29 08:10:45;;;;;;;;;;;;;;;-144.99;100.00;52643.78;5081331;28;19967;-78
2022/11/29 08:13:11;;;;;;;;;;;;;;;-144.99;100.00;52619.31;5084635;28;20401;-76
2022/11/29 08:15:43;;;;;;;;;;;;;;;-144.99;100.00;52631.53;5074061;28;19939;-77
2022/11/29 08:18:11;;;;;;;;;;;;;;;-144.99;100.00;52623.38;5075913;28;20726;-76
2022/11/29 08:20:40;;;;;;;;;;;;;;;-144.99;100.00;52643.78;5076262;28;19959;-77
2022/11/29 08:23:07;;;;;;;;;;;;;;;-144.99;100.00;52623.38;5070567;28;19994;-79
2022/11/29 08:25:34;;;;;;;;;;;;;;;-144.99;100.00;52627.47;5079306;28;19935;-77
2022/11/29 08:28:02;;;;;;;;;;;;;;;-144.99;100.00;52598.94;5079709;28;19991;-77
2022/11/29 08:30:28;;;;;;;;;;;;;;;-144.99;100.00;52621.34;5066222;28;20499;-76
2022/11/29 08:32:55;;;;;;;;;;;;;;;-144.99;100.00;52598.94;5062317;28;19943;-77
2022/11/29 08:35:23;;;;;;;;;;;;;;;-144.99;100.00;52627.47;5081035;28;20405;-75
2022/11/29 08:37:51;;;;;;;;;;;;;;;-144.99;100.00;52603.00;5070494;28;20445;-77
2022/11/29 08:40:18;;;;;;;;;;;;;;;-144.99;100.00;52625.44;5059874;28;19950;-76
2022/11/29 08:42:45;;;;;;;;;;;;;;;-144.99;100.00;52619.31;5066774;28;19962;-79
2022/11/29 08:45:12;;;;;;;;;;;;;;;-144.99;100.00;52660.09;5073792;28;19948;-77
2022/11/29 08:47:41;;;;;;;;;;;;;;;-144.99;100.00;52590.78;5074222;28;19942;-78
2022/11/29 08:50:11;;;;;;;;;;;;;;;-144.99;100.00;52607.09;5060297;28;19928;-76
2022/11/29 08:55:25;;;;;;;;;;;;;;;-144.99;100.00;52594.84;5080129;28;20096;-77
2022/11/29 08:57:54;;;;;;;;;;;;;;;-144.99;100.00;52582.63;5081169;28;19982;-77
2022/11/29 09:00:21;;;;;;;;;;;;;;;-144.99;100.00;52627.47;5080726;28;19975;-76
2022/11/29 09:02:48;;;;;;;;;;;;;;;-144.99;100.00;52582.63;5079772;28;19963;-78
2022/11/29 09:05:15;;;;;;;;;;;;;;;-144.99;100.00;52658.03;5063139;28;19959;-78
2022/11/29 09:07:42;;;;;;;;;;;;;;;-144.99;100.00;52615.25;5072151;28;20433;-76
2022/11/29 09:10:10;;;;;;;;;;;;;;;-144.99;100.00;52631.53;5069397;28;19964;-79
2022/11/29 09:12:38;;;;;;;;;;;;;;;-144.99;100.00;52623.38;5077187;28;19981;-78
2022/11/29 09:15:05;;;;;;;;;;;;;;;-144.99;100.00;52617.28;5064242;28;20313;-79
2022/11/29 09:17:32;;;;;;;;;;;;;;;-144.99;100.00;52623.38;5078526;28;19942;-78
2022/11/29 09:19:59;;;;;;;;;;;;;;;-144.99;100.00;52586.69;5081077;28;19924;-78
2022/11/29 09:22:26;;;;;;;;;;;;;;;-144.99;100.00;52647.84;5066093;28;20364;-77
2022/11/29 09:24:52;;;;;;;;;;;;;;;-144.99;100.00;52619.31;5077691;28;19924;-76
2022/11/29 09:27:19;;;;;;;;;;;;;;;-144.99;100.00;52615.25;5077935;28;19970;-77
2022/11/29 09:29:47;;;;;;;;;;;;;;;-144.99;100.00;52619.31;5077255;28;20408;-78
2022/11/29 09:32:13;;;;;;;;;;;;;;;-144.99;100.00;52594.84;5077284;28;19960;-78
2022/11/29 09:34:40;;;;;;;;;;;;;;;-144.99;100.00;52639.69;5077288;28;20548;-77
2022/11/29 09:37:08;;;;;;;;;;;;;;;-144.99;100.00;52609.13;5077047;28;20003;-77
2022/11/29 09:39:35;;;;;;;;;;;;;;;-144.99;100.00;52592.81;5074923;28;19992;-78
2022/11/29 09:42:16;;;;;;;;;;;;;;;-144.99;100.00;52627.47;5076224;28;20001;-77
2022/11/29 09:44:49;;;;;;;;;;;;;;;-144.99;100.00;52631.53;5066840;28;19985;-78
2022/11/29 09:47:24;;;;;;;;;;;;;;;-144.99;100.00;52635.63;5063341;28;20333;-78
2022/11/29 09:50:03;;;;;;;;;;;;;;;-144.99;100.00;52635.63;5067648;28;20489;-77
2022/11/29 09:52:38;;;;;;;;;;;;;;;-144.99;100.00;52594.84;5060225;28;20054;-76
2022/11/29 09:55:08;;;;;;;;;;;;;;;-144.99;100.00;52631.53;5071748;28;19945;-78
2022/11/29 09:57:37;;;;;;;;;;;;;;;-144.99;100.00;52607.09;5063585;28;19950;-75
2022/11/29 10:00:07;;;;;;;;;;;;;;;-144.99;100.00;52639.69;5054419;28;19940;-77
2022/11/29 10:02:37;;;;;;;;;;;;;;;-144.99;100.00;52594.84;5071417;28;19963;-76
2022/11/29 10:05:08;;;;;;;;;;;;;;;-144.99;100.00;52635.63;5070178;28;19963;-77
2022/11/29 10:07:39;;;;;;;;;;;;;;;-144.99;100.00;52574.47;5072659;28;19943;-76
2022/11/29 10:10:09;;;;;;;;;;;;;;;-144.99;100.00;52627.47;5071749;28;19972;-74
2022/11/29 10:12:37;;;;;;;;;;;;;;;-144.99;100.00;52627.47;5066006;28;19971;-75
2022/11/29 10:15:12;;;;;;;;;;;;;;;-144.99;100.00;52598.94;5064961;28;19941;-75
2022/11/29 10:17:43;;;;;;;;;;;;;;;-144.99;100.00;52586.69;5064182;28;20200;-74
2022/11/29 10:20:12;;;;;;;;;;;;;;;-144.99;100.00;52562.25;4719105;28;10000305;-75
2022/11/29 10:22:43;;;;;;;;;;;;;;;-144.99;100.00;52629.50;5059299;28;19928;-76
2022/11/29 10:25:16;;;;;;;;;;;;;;;-144.99;100.00;52643.78;5068737;28;20069;-76
2022/11/29 10:27:43;;;;;;;;;;;;;;;-144.99;100.00;52623.38;5064414;28;19978;-75
2022/11/29 10:30:15;;;;;;;;;;;;;;;-144.99;100.00;52647.84;5048628;28;19985;-75
2022/11/29 10:32:43;;;;;;;;;;;;;;;-144.99;100.00;52603.00;5063782;28;19993;-75
2022/11/29 10:35:12;;;;;;;;;;;;;;;-144.99;100.00;52613.19;5068228;28;20446;-74
2022/11/29 10:37:39;;;;;;;;;;;;;;;-144.99;100.00;52603.00;5065901;28;19979;-75
2022/11/29 10:40:11;;;;;;;;;;;;;;;-144.99;100.00;52615.25;5066705;28;19950;-75
2022/11/29 10:42:51;;;;;;;;;;;;;;;-144.99;100.00;52603.00;5068214;28;19987;-78
2022/11/29 10:45:24;;;;;;;;;;;;;;;-144.99;100.00;52643.78;5070230;28;20291;-75
2022/11/29 10:47:52;;;;;;;;;;;;;;;-144.99;100.00;52605.03;5068019;28;19961;-76
2022/11/29 10:50:20;;;;;;;;;;;;;;;-144.99;100.00;52611.16;5065285;28;19943;-76
2022/11/29 10:52:46;;;;;;;;;;;;;;;-144.99;100.00;52607.09;5058040;28;19964;-75
2022/11/29 10:55:14;;;;;;;;;;;;;;;-144.99;100.00;52631.53;5063073;28;19997;-74
2022/11/29 10:57:56;;;;;;;;;;;;;;;-144.99;100.00;52605.03;5056844;28;20008;-74
2022/11/29 11:00:23;;;;;;;;;;;;;;;-144.99;100.00;52639.69;5063670;28;19963;-74
2022/11/29 11:02:50;;;;;;;;;;;;;;;-144.99;100.00;52603.00;5047885;28;20016;-75
2022/11/29 11:05:25;;;;;;;;;;;;;;;-144.99;100.00;52619.31;5067307;28;19947;-75
2022/11/29 11:07:57;;;;;;;;;;;;;;;-144.99;100.00;52611.16;5068512;28;19928;-78
2022/11/29 11:10:26;;;;;;;;;;;;;;;-144.99;100.00;52603.00;5064816;28;20505;-75
2022/11/29 11:13:01;;;;;;;;;;;;;;;-144.99;100.00;52623.38;5071647;28;19946;-73
2022/11/29 11:15:30;;;;;;;;;;;;;;;-144.99;100.00;52613.19;5071277;28;19944;-75
2022/11/29 11:17:58;;;;;;;;;;;;;;;-144.99;100.00;52611.16;5062061;28;19938;-74
2022/11/29 11:20:25;;;;;;;;;;;;;;;-144.99;100.00;52641.72;5070502;28;19928;-75
2022/11/29 11:22:57;;;;;;;;;;;;;;;-144.99;100.00;52623.38;5071353;28;19950;-79
2022/11/29 11:25:28;;;;;;;;;;;;;;;-144.99;100.00;52611.16;5071154;28;19937;-73
2022/11/29 11:27:56;;;;;;;;;;;;;;;-144.99;100.00;52611.16;5068596;28;19929;-74
2022/11/29 11:30:24;;;;;;;;;;;;;;;-144.99;100.00;52619.31;5072834;28;20248;-74
2022/11/29 11:33:05;;;;;;;;;;;;;;;-144.99;100.00;52623.38;5055012;28;19981;-73
2022/11/29 11:35:33;;;;;;;;;;;;;;;-144.99;100.00;52662.13;5065129;28;20719;-78
2022/11/29 11:38:01;;;;;;;;;;;;;;;-144.99;100.00;52586.69;5058662;28;20307;-74
2022/11/29 11:40:29;;;;;;;;;;;;;;;-144.99;100.00;52578.53;5066555;28;19973;-73
2022/11/29 11:42:56;;;;;;;;;;;;;;;-144.99;100.00;52570.38;5054118;28;20327;-73
2022/11/29 11:45:26;;;;;;;;;;;;;;;-144.99;100.00;52619.31;5068108;28;19955;-75
2022/11/29 11:47:54;;;;;;;;;;;;;;;-144.99;100.00;52611.16;5068435;28;19970;-73
2022/11/29 11:50:27;;;;;;;;;;;;;;;-144.99;100.00;52603.00;5057865;28;19962;-75
2022/11/29 11:53:08;;;;;;;;;;;;;;;-144.99;100.00;52631.53;5061142;28;19973;-75
2022/11/29 11:55:39;;;;;;;;;;;;;;;-144.99;100.00;52594.84;5062459;28;19943;-74
2022/11/29 11:58:10;;;;;;;;;;;;;;;-144.99;100.00;52615.25;5057738;28;19928;-75
2022/11/29 12:00:38;;;;;;;;;;;;;;;-144.99;100.00;52594.84;5075070;28;20182;-73
2022/11/29 12:03:05;;;;;;;;;;;;;;;-144.99;100.00;52609.13;5061254;28;20404;-74
2022/11/29 12:05:32;;;;;;;;;;;;;;;-144.99;100.00;52554.09;5069507;28;19939;-73
2022/11/29 12:08:01;;;;;;;;;;;;;;;-144.99;100.00;52615.25;5056604;28;19955;-73
2022/11/29 12:10:30;;;;;;;;;;;;;;;-144.99;100.00;52594.84;5059846;28;19965;-73
2022/11/29 12:13:00;;;;;;;;;;;;;;;-144.99;100.00;52594.84;5065989;28;19962;-72
2022/11/29 12:15:28;;;;;;;;;;;;;;;-144.99;100.00;52586.69;5063627;28;19962;-73
2022/11/29 12:17:57;;;;;;;;;;;;;;;-144.99;100.00;52588.75;5069399;28;19924;-73
2022/11/29 12:20:26;;;;;;;;;;;;;;;-144.99;100.00;52594.84;5062211;28;19955;-74
2022/11/29 12:23:06;;;;;;;;;;;;;;;-144.99;100.00;52570.38;5061142;28;20032;-73
2022/11/29 12:25:34;;;;;;;;;;;;;;;-144.99;100.00;52572.44;5062709;28;20068;-73
2022/11/29 12:28:03;;;;;;;;;;;;;;;-144.99;100.00;52627.47;5065293;28;19933;-72
2022/11/29 12:30:30;;;;;;;;;;;;;;;-144.99;100.00;52576.50;5068918;28;19969;-72
2022/11/29 12:33:03;;;;;;;;;;;;;;;-144.99;100.00;52586.69;5075126;28;20048;-73
2022/11/29 12:35:38;;;;;;;;;;;;;;;-144.99;100.00;52615.25;5069179;28;19928;-73
2022/11/29 12:38:10;;;;;;;;;;;;;;;-144.99;100.00;52617.28;5058859;28;20292;-74
2022/11/29 12:40:41;;;;;;;;;;;;;;;-144.99;100.00;52647.84;5067426;28;19953;-73